createdAt,value
2019-05-18T00:01:51.595Z,22.82
2019-05-18T00:06:57.706Z,25.20
2019-05-18T00:12:01.121Z,25.95
2019-05-18T00:17:07.893Z,21.15
2019-05-18T00:22:09.878Z,19.95
2019-05-18T00:27:13.347Z,20.52
2019-05-18T00:32:18.011Z,22.00
2019-05-18T00:37:21.868Z,23.25
2019-05-18T00:42:25.575Z,19.87
2019-05-18T00:47:40.820Z,18.37
2019-05-18T00:52:36.304Z,22.07
2019-05-18T00:57:42.065Z,20.65
2019-05-18T01:02:45.824Z,23.87
2019-05-18T01:07:49.925Z,23.55
2019-05-18T01:12:53.325Z,21.85
2019-05-18T01:17:58.228Z,19.45
2019-05-18T01:23:05.486Z,22.77
2019-05-18T01:33:12.522Z,26.00
2019-05-18T01:38:19.924Z,25.57
2019-05-18T01:43:23.673Z,21.10
2019-05-18T01:48:27.456Z,21.68
2019-05-18T01:53:32.613Z,22.62
2019-05-18T01:58:36.015Z,25.23
2019-05-18T02:03:39.714Z,22.87
2019-05-18T02:08:45.880Z,26.77
2019-05-18T02:13:49.920Z,24.12
2019-05-18T02:18:54.626Z,25.85
2019-05-18T02:23:58.431Z,25.17
2019-05-18T02:29:02.250Z,26.75
2019-05-18T02:34:05.809Z,27.73
2019-05-18T02:39:10.030Z,30.55
2019-05-18T02:44:13.790Z,28.10
2019-05-18T02:49:17.237Z,30.80
2019-05-18T02:54:20.968Z,27.32
2019-05-18T02:59:24.383Z,28.75
2019-05-18T03:04:27.919Z,27.20
2019-05-18T03:09:31.740Z,28.02
2019-05-18T03:14:35.334Z,26.02
2019-05-18T03:19:38.724Z,28.30
2019-05-18T03:24:42.352Z,25.50
2019-05-18T03:29:46.131Z,27.73
2019-05-18T03:34:52.273Z,27.40
2019-05-18T03:39:56.526Z,25.55
2019-05-18T03:45:00.289Z,24.92
2019-05-18T03:50:04.541Z,26.62
2019-05-18T03:55:08.515Z,24.57
2019-05-18T04:00:11.885Z,24.43
2019-05-18T04:05:15.594Z,25.88
2019-05-18T04:10:28.456Z,24.27
2019-05-18T04:15:32.125Z,19.10
2019-05-18T04:20:35.405Z,21.15
2019-05-18T04:25:43.296Z,23.85
2019-05-18T04:30:45.488Z,23.77
2019-05-18T04:35:48.955Z,23.45
2019-05-18T04:41:05.857Z,22.70
2019-05-18T04:46:09.357Z,18.70
2019-05-18T04:51:12.813Z,17.77
2019-05-18T04:56:16.365Z,20.57
2019-05-18T05:01:20.299Z,22.42
2019-05-18T05:06:23.750Z,24.63
2019-05-18T05:11:28.012Z,14.45
2019-05-18T05:16:31.445Z,18.73
2019-05-18T05:21:35.179Z,14.87
2019-05-18T05:26:39.664Z,8.90
2019-05-18T05:31:44.502Z,4.05
2019-05-18T05:36:48.889Z,2.33
2019-05-18T05:41:52.180Z,3.55
2019-05-18T05:46:55.428Z,4.58
2019-05-18T05:51:59.110Z,7.40
2019-05-18T05:57:03.814Z,7.00
2019-05-18T06:02:07.323Z,5.03
2019-05-18T06:07:11.031Z,8.33
2019-05-18T06:12:16.064Z,6.60
2019-05-18T06:17:19.835Z,6.17
2019-05-18T06:22:23.805Z,5.97
2019-05-18T06:27:27.458Z,6.62
2019-05-18T06:32:31.348Z,8.35
2019-05-18T06:37:34.653Z,9.45
2019-05-18T06:42:38.154Z,6.78
2019-05-18T06:47:41.698Z,9.45
2019-05-18T06:52:45.872Z,10.80
2019-05-18T06:57:50.600Z,5.50
2019-05-18T07:02:54.590Z,8.75
2019-05-18T07:07:58.360Z,10.78
2019-05-18T07:13:02.018Z,12.50
2019-05-18T07:18:05.559Z,15.98
2019-05-18T07:23:09.426Z,10.08
2019-05-18T07:28:13.278Z,11.10
2019-05-18T07:33:18.321Z,12.28
2019-05-18T07:38:22.028Z,12.57
2019-05-18T07:43:25.635Z,9.38
2019-05-18T07:48:29.306Z,11.80
2019-05-18T07:53:32.648Z,7.83
2019-05-18T07:58:36.294Z,11.75
2019-05-18T08:03:39.630Z,9.60
2019-05-18T08:08:43.414Z,8.33
2019-05-18T08:13:46.924Z,12.03
2019-05-18T08:18:50.891Z,13.28
2019-05-18T08:23:54.888Z,10.35
2019-05-18T08:28:59.154Z,13.70
2019-05-18T08:34:02.721Z,7.87
2019-05-18T08:39:06.221Z,10.75
2019-05-18T08:44:09.964Z,8.00
2019-05-18T08:49:14.786Z,8.98
2019-05-18T08:54:18.289Z,8.65
2019-05-18T08:59:21.871Z,6.45
2019-05-18T09:04:25.087Z,6.28
2019-05-18T09:09:30.108Z,11.03
2019-05-18T09:14:33.443Z,7.10
2019-05-18T09:19:37.308Z,5.33
2019-05-18T09:24:40.626Z,7.42
2019-05-18T09:29:44.160Z,5.72
2019-05-18T09:34:48.353Z,5.87
2019-05-18T09:39:51.894Z,9.00
2019-05-18T09:44:56.163Z,5.45
2019-05-18T09:50:00.056Z,5.17
2019-05-18T09:55:04.254Z,8.45
2019-05-18T10:00:08.859Z,7.83
2019-05-18T10:05:12.478Z,6.83
2019-05-18T10:10:17.006Z,7.42
2019-05-18T10:15:20.432Z,7.92
2019-05-18T10:20:23.747Z,5.20
2019-05-18T10:25:27.556Z,7.67
2019-05-18T10:30:31.893Z,5.65
2019-05-18T10:35:37.049Z,7.78
2019-05-18T10:40:40.870Z,10.15
2019-05-18T10:45:45.186Z,5.87
2019-05-18T10:50:49.202Z,6.50
2019-05-18T10:55:52.992Z,5.58
2019-05-18T11:00:56.581Z,5.87
2019-05-18T11:06:01.649Z,6.45
2019-05-18T11:11:05.284Z,6.53
2019-05-18T11:16:10.625Z,23.62
2019-05-18T11:26:17.444Z,6.53
2019-05-18T11:31:22.897Z,7.12
2019-05-18T11:36:28.541Z,8.00
2019-05-18T11:41:32.378Z,7.15
2019-05-18T11:46:35.969Z,8.50
2019-05-18T11:51:39.625Z,7.55
2019-05-18T11:56:43.071Z,9.83
2019-05-18T12:01:47.031Z,7.67
2019-05-18T12:06:51.673Z,6.97
2019-05-18T12:11:55.417Z,5.90
2019-05-18T12:17:00.513Z,8.05
2019-05-18T12:22:04.321Z,9.05
2019-05-18T12:27:08.240Z,7.58
2019-05-18T12:32:12.073Z,5.25
2019-05-18T12:37:22.617Z,5.55
2019-05-18T12:42:26.967Z,10.65
2019-05-18T12:47:30.388Z,6.05
2019-05-18T12:52:34.069Z,8.70
2019-05-18T12:57:38.128Z,5.72
2019-05-18T13:02:41.493Z,6.97
2019-05-18T13:07:45.328Z,18.57
2019-05-18T13:12:48.791Z,7.12
2019-05-18T13:17:54.923Z,9.85
2019-05-18T13:22:58.324Z,6.50
2019-05-18T13:28:01.949Z,5.12
2019-05-18T13:33:05.678Z,5.87
2019-05-18T13:38:10.127Z,5.97
2019-05-18T13:43:14.307Z,7.17
2019-05-18T13:48:18.057Z,6.40
2019-05-18T13:53:21.858Z,7.03
2019-05-18T13:58:25.373Z,6.78
2019-05-18T14:03:30.269Z,7.30
2019-05-18T14:08:34.122Z,8.00
2019-05-18T14:13:37.850Z,9.53
2019-05-18T14:18:41.503Z,8.60
2019-05-18T14:23:45.008Z,7.67
2019-05-18T14:28:48.816Z,5.78
2019-05-18T14:33:52.215Z,6.10
2019-05-18T14:38:57.121Z,6.75
2019-05-18T14:44:00.561Z,7.40
2019-05-18T14:49:04.265Z,6.42
2019-05-18T14:54:09.024Z,7.33
2019-05-18T14:59:12.832Z,5.15
2019-05-18T15:04:16.401Z,5.58
2019-05-18T15:09:19.880Z,4.00
2019-05-18T15:14:23.203Z,4.45
2019-05-18T15:19:26.723Z,3.90
2019-05-18T15:24:30.178Z,4.45
2019-05-18T15:29:34.768Z,7.67
2019-05-18T15:34:38.314Z,7.10
2019-05-18T15:39:42.687Z,6.80
2019-05-18T15:44:46.616Z,5.28
2019-05-18T15:49:51.795Z,6.42
2019-05-18T15:54:55.691Z,7.55
2019-05-18T15:59:59.238Z,7.95
2019-05-18T16:05:02.651Z,5.87
2019-05-18T16:10:07.613Z,7.08
2019-05-18T16:15:12.504Z,4.28
2019-05-18T16:20:17.367Z,4.15
2019-05-18T16:25:21.309Z,6.00
2019-05-18T16:30:24.724Z,4.33
2019-05-18T16:35:28.653Z,6.05
2019-05-18T16:40:32.676Z,5.08
2019-05-18T16:45:36.938Z,4.83
2019-05-18T16:50:40.676Z,4.97
2019-05-18T16:55:44.170Z,4.70
2019-05-18T17:00:47.928Z,6.30
2019-05-18T17:05:51.644Z,5.58
2019-05-18T17:10:55.639Z,5.17
2019-05-18T17:15:59.357Z,6.58
2019-05-18T17:21:03.886Z,5.08
2019-05-18T17:26:07.519Z,7.90
2019-05-18T17:36:15.157Z,6.05
2019-05-18T17:41:18.893Z,9.23
2019-05-18T17:46:23.116Z,6.78
2019-05-18T17:51:26.455Z,8.33
2019-05-18T17:56:30.080Z,8.53
2019-05-18T18:01:33.446Z,7.05
2019-05-18T18:06:37.130Z,8.20
2019-05-18T18:11:41.653Z,8.93
2019-05-18T18:16:45.068Z,9.25
2019-05-18T18:21:48.539Z,13.05
2019-05-18T18:26:52.269Z,11.00
2019-05-18T18:31:55.677Z,10.93
2019-05-18T18:36:59.073Z,10.15
2019-05-18T18:42:04.419Z,9.48
2019-05-18T18:47:08.142Z,12.73
2019-05-18T18:52:11.738Z,13.95
2019-05-18T18:57:16.867Z,9.95
2019-05-18T19:02:20.637Z,13.75
2019-05-18T19:07:24.402Z,9.80
2019-05-18T19:12:28.190Z,13.50
2019-05-18T19:17:32.169Z,11.78
2019-05-18T19:22:35.603Z,12.78
2019-05-18T19:27:38.966Z,13.65
2019-05-18T19:32:42.626Z,11.93
2019-05-18T19:37:46.915Z,13.13
2019-05-18T19:42:50.370Z,14.98
2019-05-18T19:47:54.404Z,15.50
2019-05-18T19:52:57.800Z,12.47
2019-05-18T19:58:08.486Z,12.40
2019-05-18T20:03:06.955Z,16.50
2019-05-18T20:08:10.315Z,17.45
2019-05-18T20:13:15.257Z,17.77
2019-05-18T20:18:19.455Z,20.00
2019-05-18T20:23:22.929Z,22.27
2019-05-18T20:28:26.342Z,16.65
2019-05-18T20:33:30.007Z,19.32
2019-05-18T20:38:34.293Z,19.65
2019-05-18T20:43:37.748Z,18.35
2019-05-18T20:48:41.853Z,19.27
2019-05-18T20:53:45.231Z,24.30
2019-05-18T20:58:48.698Z,21.52
2019-05-18T21:03:53.302Z,18.65
2019-05-18T21:08:56.772Z,18.92
2019-05-18T21:14:00.185Z,22.62
2019-05-18T21:19:03.805Z,22.05
2019-05-18T21:24:07.100Z,21.75
2019-05-18T21:29:10.632Z,20.17
2019-05-18T21:34:14.145Z,21.42
2019-05-18T21:39:17.478Z,22.55
2019-05-18T21:44:20.812Z,22.27
2019-05-18T21:49:24.948Z,22.25
2019-05-18T21:54:29.175Z,22.90
2019-05-18T21:59:32.734Z,22.58
2019-05-18T22:04:36.408Z,26.37
2019-05-18T22:09:39.722Z,26.10
2019-05-18T22:14:43.434Z,26.33
2019-05-18T22:19:46.993Z,27.85
2019-05-18T22:24:52.688Z,26.23
2019-05-18T22:35:00.036Z,33.18
2019-05-18T22:40:04.188Z,31.10
2019-05-18T22:45:09.465Z,31.75
2019-05-18T22:50:13.377Z,31.30
2019-05-18T22:55:17.338Z,29.85
2019-05-18T23:00:21.130Z,31.00
2019-05-18T23:05:24.572Z,34.78
2019-05-18T23:10:28.078Z,33.45
2019-05-18T23:15:31.477Z,33.05
2019-05-18T23:20:35.515Z,38.25
2019-05-18T23:25:38.985Z,34.08
2019-05-18T23:30:42.473Z,33.85
2019-05-18T23:35:46.563Z,31.40
2019-05-18T23:40:50.421Z,30.95
2019-05-18T23:45:55.093Z,31.35
2019-05-18T23:50:59.624Z,26.65
2019-05-18T23:56:02.967Z,29.80
